Time;durP1;ratioP1;P1;durP2;ratioP2;P2;SDS_P1;SDS_P2;PMS_P1;PMS_P2;Temp;Humidity;BMP_temperature;BMP_pressure;BME280_temperature;BME280_humidity;BME280_pressure;Samples;Min_cycle;Max_cycle;Signal;HPM_P1;HPM_P2
2022/03/04 00:05:48;;;;;;;38.67;20.38;;;;;;;1.56;49.66;97994.16;12771740;23;20029;-76
2022/03/04 00:11:08;;;;;;;38.45;21.38;;;;;;;1.53;50.14;98001.44;12760424;23;20328;-76
2022/03/04 00:16:33;;;;;;;38.58;20.52;;;;;;;1.52;50.32;97999.22;12781943;23;20025;-75
2022/03/04 00:21:54;;;;;;;39.80;21.20;;;;;;;1.48;50.23;98001.56;12740558;23;20021;-75
2022/03/04 00:27:15;;;;;;;39.10;21.27;;;;;;;1.44;50.79;98008.09;12779209;23;20067;-75
2022/03/04 00:32:36;;;;;;;39.30;21.27;;;;;;;1.42;51.42;98005.13;12760195;23;20415;-75
2022/03/04 00:38:25;;;;;;;37.05;19.80;;;;;;;1.38;50.98;98007.47;12770345;23;20376;-75
2022/03/04 00:43:46;;;;;;;39.53;21.13;;;;;;;1.36;51.46;98018.25;12738924;23;20021;-76
2022/03/04 00:49:35;;;;;;;38.58;21.23;;;;;;;1.31;52.15;98016.31;12771631;23;20021;-75
2022/03/04 00:55:30;;;;;;;36.25;20.00;;;;;;;1.22;52.20;98010.47;12771117;23;20025;-76
2022/03/04 01:00:51;;;;;;;44.63;22.15;;;;;;;1.17;52.48;98005.84;12738824;23;20013;-77
2022/03/04 01:06:12;;;;;;;34.40;19.20;;;;;;;1.13;52.32;98009.59;12758089;23;20025;-76
2022/03/04 01:12:03;;;;;;;39.47;20.45;;;;;;;1.11;52.80;98003.16;12769854;23;20406;-75
2022/03/04 01:17:24;;;;;;;36.08;20.02;;;;;;;1.02;52.97;98000.81;12759779;23;20021;-75
2022/03/04 01:22:45;;;;;;;35.90;19.33;;;;;;;1.01;52.50;97997.31;12738443;23;20328;-76
2022/03/04 01:28:34;;;;;;;39.47;21.10;;;;;;;0.98;53.22;98003.88;12770695;23;20021;-76
2022/03/04 01:34:23;;;;;;;32.80;18.67;;;;;;;0.89;53.50;97987.03;12770697;23;20033;-76
2022/03/04 01:39:46;;;;;;;32.40;18.20;;;;;;;0.84;53.67;97997.56;12759908;23;20017;-76
2022/03/04 01:45:08;;;;;;;34.25;19.70;;;;;;;0.79;54.23;97995.66;12800193;23;20017;-75
2022/03/04 01:50:29;;;;;;;35.30;18.67;;;;;;;0.82;53.96;98002.09;12782794;23;20080;-75
2022/03/04 01:55:49;;;;;;;35.25;19.55;;;;;;;0.79;54.22;98001.16;12762508;23;20020;-75
2022/03/04 02:01:11;;;;;;;30.73;18.13;;;;;;;0.76;54.04;97996.69;12762521;23;20454;-76
2022/03/04 02:06:34;;;;;;;32.35;17.95;;;;;;;0.76;54.71;98013.19;12783850;23;20028;-75
2022/03/04 02:11:55;;;;;;;32.22;17.65;;;;;;;0.67;55.10;98013.56;12782167;23;20340;-76
2022/03/04 02:18:17;;;;;;;33.63;17.75;;;;;;;0.63;55.57;98006.88;12773313;23;20029;-78
2022/03/04 02:32:44;;;;;;;;;;;;;;;0.55;57.15;98026.72;12803802;23;20091;-78
2022/03/04 02:38:33;;;;;;;33.58;18.38;;;;;;;0.55;55.95;98020.47;12787556;23;19916;-75
2022/03/04 02:43:58;;;;;;;33.30;17.60;;;;;;;0.56;55.89;98022.69;12783783;23;20017;-75
2022/03/04 02:49:49;;;;;;;33.20;18.70;;;;;;;0.55;55.87;98025.97;12757598;23;20021;-75
2022/03/04 02:55:12;;;;;;;30.23;16.60;;;;;;;0.53;56.20;98031.25;12761578;23;20380;-75
2022/03/04 03:00:46;;;;;;;31.25;17.38;;;;;;;0.52;56.25;98032.50;12784259;23;20013;-75
2022/03/04 03:06:15;;;;;;;32.15;17.33;;;;;;;0.51;56.84;98022.78;12744452;23;20025;-75
2022/03/04 03:11:45;;;;;;;35.45;17.92;;;;;;;0.51;56.86;98020.03;12784614;23;20028;-76
2022/03/04 03:17:06;;;;;;;31.67;18.63;;;;;;;0.49;56.96;98026.06;12802247;23;20013;-75
2022/03/04 03:22:29;;;;;;;30.52;17.33;;;;;;;0.49;57.18;98019.81;12781384;23;20036;-75
2022/03/04 03:28:18;;;;;;;29.15;16.38;;;;;;;0.48;57.28;98027.31;12756411;23;20103;-76
2022/03/04 03:33:43;;;;;;;32.40;18.25;;;;;;;0.59;57.85;98025.69;12700881;23;20021;-76
2022/03/04 03:39:09;;;;;;;35.65;18.40;;;;;;;0.74;57.48;98020.47;12702987;23;20014;-75
2022/03/04 03:45:02;;;;;;;32.53;17.67;;;;;;;0.93;57.05;98017.69;12709932;23;20025;-75
2022/03/04 03:50:24;;;;;;;28.65;16.52;;;;;;;1.06;57.23;98036.97;12699691;23;20348;-76
2022/03/04 03:55:45;;;;;;;29.98;17.45;;;;;;;1.13;57.36;98039.13;12699462;23;20473;-76
2022/03/04 04:01:12;;;;;;;28.65;16.75;;;;;;;1.18;57.52;98043.81;12698912;23;20017;-75
2022/03/04 04:06:33;;;;;;;27.67;16.83;;;;;;;1.21;58.21;98045.50;12679598;23;20022;-75
2022/03/04 04:11:54;;;;;;;28.38;17.65;;;;;;;1.23;57.49;98059.47;12738491;23;20014;-77
2022/03/04 04:17:14;;;;;;;28.10;17.30;;;;;;;1.34;57.85;98061.28;12678745;23;20024;-76
2022/03/04 04:22:43;;;;;;;28.27;16.55;;;;;;;1.44;57.45;98059.63;12678305;23;20084;-75
2022/03/04 04:28:05;;;;;;;28.05;16.88;;;;;;;1.42;57.63;98053.91;12698212;23;20013;-75
2022/03/04 04:33:31;;;;;;;27.45;17.27;;;;;;;1.47;57.56;98050.34;12680339;23;20018;-76
2022/03/04 04:38:52;;;;;;;32.38;18.23;;;;;;;1.41;57.91;98042.16;12679069;23;20017;-75
2022/03/04 04:44:14;;;;;;;29.83;17.50;;;;;;;1.33;58.49;98046.06;12719471;23;20023;-75
2022/03/04 04:50:05;;;;;;;31.17;16.75;;;;;;;1.19;58.27;98053.53;12695825;23;20025;-75
2022/03/04 04:55:26;;;;;;;31.25;17.33;;;;;;;1.03;58.45;98057.28;12699170;23;20017;-76
2022/03/04 05:01:16;;;;;;;32.28;18.52;;;;;;;0.92;58.91;98062.94;12708614;23;20345;-75
2022/03/04 05:07:14;;;;;;;29.15;16.42;;;;;;;0.98;58.80;98055.34;12708607;23;20029;-76
2022/03/04 05:13:16;;;;;;;30.77;17.42;;;;;;;1.02;59.24;98061.28;12708821;23;20452;-76
2022/03/04 05:18:37;;;;;;;31.27;17.88;;;;;;;1.08;59.15;98048.22;12739619;23;20018;-76
2022/03/04 05:33:32;;;;;;;30.88;17.23;;;;;;;1.24;60.24;98052.69;12742734;22;20022;-78
2022/03/04 05:40:00;;;;;;;29.17;17.10;;;;;;;1.35;60.08;98058.03;12708675;23;20096;-78
2022/03/04 07:11:30;;;;;;;31.10;17.83;;;;;;;2.62;60.49;98149.13;12741536;23;20030;-75
2022/03/04 07:17:19;;;;;;;29.73;18.00;;;;;;;2.67;60.68;98139.25;12725564;23;20033;-75
2022/03/04 07:22:42;;;;;;;30.63;18.08;;;;;;;2.70;60.34;98140.94;12741268;23;20058;-75
2022/03/04 07:28:03;;;;;;;30.52;17.73;;;;;;;2.79;61.12;98146.03;12721559;23;20021;-75
2022/03/04 07:33:52;;;;;;;28.95;17.70;;;;;;;2.95;61.10;98153.22;12759696;23;20024;-75
2022/03/04 07:39:13;;;;;;;32.03;18.75;;;;;;;3.03;60.09;98156.81;12781255;23;20043;-76
2022/03/04 07:45:04;;;;;;;30.15;17.63;;;;;;;3.23;60.83;98149.88;12771326;23;20025;-75
2022/03/04 07:50:24;;;;;;;27.95;17.48;;;;;;;3.48;60.58;98155.09;12759879;23;20013;-76
2022/03/04 07:55:47;;;;;;;32.70;18.85;;;;;;;3.51;60.67;98157.50;12760750;23;20025;-75
2022/03/04 08:01:10;;;;;;;29.98;17.88;;;;;;;3.56;60.62;98167.66;12760913;23;20040;-75
2022/03/04 08:06:46;;;;;;;32.97;18.40;;;;;;;3.50;59.94;98169.09;12805185;23;20420;-75
2022/03/04 08:12:12;;;;;;;31.08;19.30;;;;;;;3.43;60.47;98173.25;12755826;23;20404;-76
2022/03/04 08:17:33;;;;;;;31.67;19.73;;;;;;;3.67;60.33;98178.47;12801147;23;20020;-76
2022/03/04 08:22:56;;;;;;;29.95;19.60;;;;;;;3.79;60.66;98169.94;12780481;23;20013;-76
2022/03/04 08:28:20;;;;;;;30.20;19.30;;;;;;;3.87;60.61;98185.28;12781238;23;20305;-76
2022/03/04 08:33:43;;;;;;;33.08;19.65;;;;;;;3.85;60.47;98185.06;12774679;23;20428;-76
2022/03/04 08:39:33;;;;;;;32.22;19.38;;;;;;;3.80;60.22;98197.00;12757530;23;20025;-76
2022/03/04 08:44:59;;;;;;;34.25;20.67;;;;;;;3.73;60.38;98187.34;12801548;23;20040;-75
2022/03/04 08:50:22;;;;;;;32.38;19.92;;;;;;;3.70;60.54;98193.97;12741438;23;20013;-76
2022/03/04 08:55:45;;;;;;;33.70;20.38;;;;;;;3.70;59.86;98193.97;12760599;23;20052;-76
2022/03/04 09:01:36;;;;;;;33.65;19.80;;;;;;;3.81;60.83;98198.47;12772306;23;20424;-75
2022/03/04 09:06:58;;;;;;;31.30;19.75;;;;;;;3.99;60.42;98199.56;12743718;23;20067;-76
2022/03/04 09:12:48;;;;;;;27.80;18.65;;;;;;;4.18;60.05;98205.63;12769699;23;20436;-76
2022/03/04 09:18:10;;;;;;;31.35;19.30;;;;;;;4.22;59.54;98210.78;12779336;23;20017;-76
2022/03/04 09:23:31;;;;;;;28.95;18.52;;;;;;;4.20;59.96;98213.38;12780027;23;20016;-75
2022/03/04 09:28:52;;;;;;;28.77;18.30;;;;;;;4.15;59.54;98215.00;12779776;23;20022;-75
2022/03/04 09:34:41;;;;;;;25.75;16.33;;;;;;;4.12;59.91;98220.84;12774966;23;20029;-82
2022/03/04 09:40:03;;;;;;;26.83;16.60;;;;;;;4.10;59.90;98213.09;12777197;23;20028;-79
2022/03/04 09:45:25;;;;;;;30.52;18.13;;;;;;;4.09;60.21;98224.69;12737659;23;20017;-77
2022/03/04 09:50:47;;;;;;;27.15;16.52;;;;;;;4.15;60.35;98217.75;12786155;23;20017;-82
2022/03/04 09:56:08;;;;;;;26.85;17.60;;;;;;;4.24;59.48;98228.31;12768139;23;20017;-78
2022/03/04 10:01:29;;;;;;;28.38;16.52;;;;;;;4.29;59.42;98224.69;12799492;23;20068;-77
2022/03/04 10:06:50;;;;;;;27.08;16.20;;;;;;;4.50;59.41;98221.16;12758873;23;20088;-78
2022/03/04 10:12:15;;;;;;;27.05;16.33;;;;;;;4.58;59.84;98228.22;12807644;23;20293;-80
2022/03/04 10:17:36;;;;;;;25.25;15.13;;;;;;;4.56;59.41;98219.72;12783063;23;20024;-80
2022/03/04 10:23:09;;;;;;;22.77;14.55;;;;;;;4.48;59.57;98229.97;12795603;23;20024;-81
2022/03/04 10:28:32;;;;;;;21.83;14.13;;;;;;;4.48;59.70;98229.25;12799013;23;20013;-80
2022/03/04 10:34:05;;;;;;;24.88;14.80;;;;;;;4.41;59.85;98224.41;12758033;23;20056;-78
2022/03/04 10:40:08;;;;;;;22.80;13.90;;;;;;;4.43;59.78;98238.41;12827087;23;20563;-80
2022/03/04 10:45:30;;;;;;;23.58;13.52;;;;;;;4.48;59.73;98229.25;12805003;23;20032;-79
2022/03/04 10:50:53;;;;;;;22.70;12.65;;;;;;;4.47;59.32;98227.75;12834978;23;20021;-81
2022/03/04 10:56:15;;;;;;;21.48;13.15;;;;;;;4.46;59.54;98232.56;12814350;23;20017;-78
2022/03/04 11:01:45;;;;;;;20.17;12.38;;;;;;;4.47;59.88;98228.50;12766941;23;20056;-77
2022/03/04 11:07:06;;;;;;;20.65;12.18;;;;;;;4.53;59.57;98226.31;12783805;23;20044;-76
2022/03/04 11:12:30;;;;;;;20.48;11.38;;;;;;;4.56;59.85;98219.72;12741069;23;20021;-79
2022/03/04 11:17:52;;;;;;;16.57;10.87;;;;;;;4.58;59.66;98225.44;12744590;23;20075;-78
2022/03/04 11:23:22;;;;;;;18.73;10.88;;;;;;;4.52;59.22;98229.63;12742409;23;20021;-79
2022/03/04 11:28:51;;;;;;;18.25;12.07;;;;;;;4.42;59.18;98231.41;12764356;23;20323;-80
2022/03/04 11:34:18;;;;;;;16.63;10.00;;;;;;;4.49;59.32;98236.25;12745707;23;20029;-81
2022/03/04 11:40:05;;;;;;;18.95;11.48;;;;;;;4.51;59.35;98228.16;12773070;23;20087;-81
2022/03/04 11:45:33;;;;;;;18.42;11.45;;;;;;;4.51;58.76;98228.16;12793940;23;20017;-83
2022/03/04 11:50:58;;;;;;;18.60;10.70;;;;;;;4.50;59.23;98237.72;12807010;23;20019;-83
2022/03/04 11:56:24;;;;;;;16.60;10.02;;;;;;;4.42;59.21;98234.91;12808383;23;20025;-83
2022/03/04 12:01:47;;;;;;;16.20;9.65;;;;;;;4.41;59.69;98235.44;12810601;23;20070;-81
2022/03/04 12:07:09;;;;;;;15.60;10.23;;;;;;;4.35;58.76;98237.63;12806598;23;20036;-83
2022/03/04 12:12:30;;;;;;;15.50;9.75;;;;;;;4.30;59.60;98247.53;12827296;23;20021;-83
2022/03/04 12:18:27;;;;;;;15.55;9.18;;;;;;;4.42;58.77;98239.69;12818771;23;20077;-82
2022/03/04 12:23:50;;;;;;;14.77;9.38;;;;;;;4.33;59.08;98235.38;12784677;23;20077;-83
2022/03/04 12:29:44;;;;;;;16.30;9.32;;;;;;;4.41;59.11;98241.72;12818860;23;20001;-85
2022/03/04 12:35:06;;;;;;;16.08;9.80;;;;;;;4.37;58.62;98237.81;12789850;23;20036;-81
2022/03/04 12:40:28;;;;;;;15.32;8.95;;;;;;;4.29;59.06;98240.53;12795469;23;20005;-88
2022/03/04 12:45:51;;;;;;;14.18;9.77;;;;;;;4.43;59.10;98246.69;12829395;23;20059;-84
2022/03/04 12:51:18;;;;;;;14.27;9.55;;;;;;;4.49;59.30;98239.00;12768467;23;20025;-84
2022/03/04 12:56:40;;;;;;;15.27;10.10;;;;;;;4.63;58.81;98234.88;12857946;23;20005;-83
2022/03/04 13:02:02;;;;;;;17.23;10.52;;;;;;;4.62;59.05;98247.22;12838075;23;20007;-85
2022/03/04 13:07:23;;;;;;;16.98;10.25;;;;;;;4.74;59.01;98237.34;12773961;23;20073;-82
2022/03/04 13:12:46;;;;;;;15.13;10.45;;;;;;;4.86;58.95;98244.06;12826618;23;20008;-83
2022/03/04 13:18:06;;;;;;;19.58;12.23;;;;;;;4.84;58.61;98243.13;12816900;23;20005;-81
2022/03/04 13:23:29;;;;;;;17.17;11.13;;;;;;;4.74;59.12;98242.88;12837268;23;20005;-84
2022/03/04 13:28:55;;;;;;;20.30;11.98;;;;;;;4.77;58.95;98238.28;12808181;23;20024;-82
2022/03/04 13:34:15;;;;;;;21.10;12.13;;;;;;;4.88;59.06;98233.19;12780280;23;20021;-82
2022/03/04 13:40:44;;;;;;;18.90;12.82;;;;;;;5.16;59.15;98228.91;12791015;23;20017;-76
2022/03/04 13:46:27;;;;;;;17.08;12.02;;;;;;;5.30;58.57;98230.25;12785167;23;20513;-76
2022/03/04 13:52:04;;;;;;;21.00;12.10;;;;;;;5.34;57.69;98233.41;12774061;23;20388;-75
2022/03/04 13:57:34;;;;;;;16.83;11.60;;;;;;;5.28;58.11;98232.09;12764459;23;20436;-77
2022/03/04 14:02:56;;;;;;;21.95;12.98;;;;;;;5.35;58.08;98239.69;12764959;23;20028;-77
2022/03/04 14:08:19;;;;;;;18.00;11.73;;;;;;;5.44;57.75;98239.91;12744954;23;20013;-78
2022/03/04 14:13:41;;;;;;;19.10;12.43;;;;;;;5.49;57.89;98235.50;12765611;23;20017;-80
2022/03/04 14:19:06;;;;;;;18.25;12.45;;;;;;;5.70;57.77;98230.59;12766593;23;20063;-79
2022/03/04 14:24:28;;;;;;;20.00;12.85;;;;;;;5.75;57.16;98237.22;12764201;23;20020;-77
2022/03/04 14:29:49;;;;;;;21.48;13.13;;;;;;;5.53;57.54;98238.66;12784423;23;20013;-77
2022/03/04 14:35:11;;;;;;;19.48;12.32;;;;;;;5.36;57.46;98247.44;12745363;23;20029;-78
2022/03/04 14:40:32;;;;;;;18.35;12.48;;;;;;;5.39;58.06;98245.59;12763847;23;20478;-77
2022/03/04 14:45:57;;;;;;;18.75;12.02;;;;;;;5.32;57.72;98241.53;12744927;23;20020;-77
2022/03/04 14:51:28;;;;;;;22.33;13.27;;;;;;;5.05;58.26;98240.31;12764638;23;20017;-77
2022/03/04 14:57:28;;;;;;;19.58;13.30;;;;;;;5.09;58.67;98238.66;12782724;23;20019;-78
2022/03/04 15:03:24;;;;;;;22.08;14.43;;;;;;;5.08;58.86;98253.03;12803549;23;20013;-78
2022/03/04 15:09:13;;;;;;;19.58;13.43;;;;;;;5.04;58.15;98250.63;12788418;23;20021;-78
2022/03/04 15:14:54;;;;;;;23.08;14.05;;;;;;;5.00;58.77;98249.47;12767296;23;20071;-78
2022/03/04 15:20:54;;;;;;;21.52;12.90;;;;;;;5.03;58.65;98249.16;12772328;23;20062;-78
2022/03/04 15:26:44;;;;;;;19.60;12.60;;;;;;;4.88;58.13;98260.84;12758049;23;20025;-78
2022/03/04 15:32:39;;;;;;;17.15;12.10;;;;;;;4.68;59.25;98261.66;12771927;23;20025;-78
2022/03/04 15:38:29;;;;;;;20.25;12.55;;;;;;;4.45;58.40;98252.44;12796921;23;20021;-78
2022/03/04 15:43:53;;;;;;;22.50;13.57;;;;;;;4.38;58.68;98256.63;12740392;23;20321;-78
2022/03/04 15:49:52;;;;;;;21.42;13.63;;;;;;;4.43;59.34;98266.06;12757029;23;20025;-78
2022/03/04 15:55:44;;;;;;;23.08;14.35;;;;;;;4.37;58.76;98268.22;12757853;23;20076;-78
2022/03/04 16:01:33;;;;;;;22.92;13.88;;;;;;;4.42;59.10;98264.56;12758286;23;20100;-80
2022/03/04 16:07:24;;;;;;;23.80;13.55;;;;;;;4.48;58.95;98267.94;12775152;23;20021;-78
2022/03/04 16:12:45;;;;;;;20.63;13.40;;;;;;;4.37;58.55;98268.97;12763159;23;20067;-79
2022/03/04 16:18:07;;;;;;;19.67;12.95;;;;;;;4.22;58.87;98266.81;12764801;23;20017;-78
2022/03/04 16:23:30;;;;;;;21.08;13.25;;;;;;;4.12;58.83;98268.56;12739607;23;20019;-77
2022/03/04 16:28:51;;;;;;;19.08;12.65;;;;;;;4.05;59.14;98280.25;12759685;23;20092;-77
2022/03/04 16:34:17;;;;;;;21.83;13.68;;;;;;;3.96;59.75;98275.22;12781401;23;20017;-76
2022/03/04 16:39:38;;;;;;;21.85;13.50;;;;;;;3.90;59.67;98288.41;12769853;23;20428;-75
2022/03/04 16:45:11;;;;;;;21.92;14.43;;;;;;;3.78;60.04;98287.19;12783640;23;20013;-77
2022/03/04 16:50:39;;;;;;;20.40;12.75;;;;;;;3.74;59.98;98282.72;12780090;23;20380;-77
2022/03/04 16:56:40;;;;;;;18.85;13.10;;;;;;;3.67;60.40;98280.63;12759825;23;20017;-78
2022/03/04 17:02:13;;;;;;;18.50;12.10;;;;;;;3.63;60.35;98282.97;12780566;23;20020;-78
2022/03/04 17:07:44;;;;;;;21.10;13.57;;;;;;;3.60;60.21;98278.53;12766021;23;20024;-76
2022/03/04 17:13:34;;;;;;;22.73;13.50;;;;;;;3.61;60.44;98279.25;12756034;23;20025;-77
2022/03/04 17:18:55;;;;;;;21.42;13.13;;;;;;;3.56;60.53;98278.09;12767744;23;20031;-81
2022/03/04 17:24:18;;;;;;;22.98;14.35;;;;;;;3.54;60.49;98275.13;12780188;23;20072;-77
2022/03/04 17:30:10;;;;;;;22.42;14.90;;;;;;;3.53;61.00;98273.66;12770110;23;20025;-77
2022/03/04 17:35:31;;;;;;;20.90;14.75;;;;;;;3.50;60.77;98283.00;12744531;23;20024;-79
2022/03/04 17:40:51;;;;;;;20.83;13.73;;;;;;;3.44;60.45;98287.88;12790667;23;20021;-77
2022/03/04 17:46:13;;;;;;;23.55;15.02;;;;;;;3.39;60.91;98286.00;12759201;23;20017;-77
2022/03/04 17:52:02;;;;;;;22.02;14.50;;;;;;;3.43;60.81;98294.69;12772744;23;20429;-80
2022/03/04 17:57:23;;;;;;;22.65;14.70;;;;;;;3.38;60.93;98292.78;12740414;23;20310;-78
2022/03/04 18:03:17;;;;;;;24.88;16.50;;;;;;;3.36;61.24;98293.31;12759350;23;20013;-77
2022/03/04 18:16:11;;;;;;;23.48;14.40;;;;;;;3.31;61.06;98291.41;12800615;23;20025;-77
2022/03/04 18:21:40;;;;;;;22.63;14.00;;;;;;;3.31;61.16;98290.69;12778471;23;20024;-78
2022/03/04 18:33:20;;;;;;;23.58;14.93;;;;;;;3.20;61.33;98308.19;12807170;22;20344;-77
2022/03/04 18:46:03;;;;;;;24.42;14.15;;;;;;;3.11;62.43;98327.94;12792316;23;20040;-77
2022/03/04 18:52:01;;;;;;;21.58;14.27;;;;;;;3.07;61.48;98319.22;12787417;23;20029;-77
2022/03/04 18:57:55;;;;;;;21.00;13.82;;;;;;;3.04;62.29;98334.06;12782814;23;20328;-77
2022/03/04 19:03:22;;;;;;;18.42;12.45;;;;;;;3.08;61.77;98321.44;12763969;23;20016;-77
2022/03/04 19:08:43;;;;;;;24.02;13.18;;;;;;;3.07;61.57;98316.47;12762880;23;20017;-77
2022/03/04 19:21:29;;;;;;;17.65;12.38;;;;;;;2.93;61.70;98324.00;12801359;23;20334;-77
2022/03/04 19:27:28;;;;;;;20.50;13.57;;;;;;;2.91;61.60;98328.56;12757414;23;20020;-75
2022/03/04 19:41:21;;;;;;;20.17;13.27;;;;;;;2.91;61.56;98332.06;12786335;23;20021;-76
2022/03/04 19:47:18;;;;;;;23.02;13.48;;;;;;;2.87;62.00;98331.59;12758426;23;20021;-76
2022/03/04 19:53:08;;;;;;;20.70;12.05;;;;;;;2.87;62.41;98337.13;12773158;23;20029;-76
2022/03/04 19:58:40;;;;;;;17.27;10.77;;;;;;;2.84;61.90;98340.94;12740663;23;20028;-77
2022/03/04 20:05:10;;;;;;;17.80;10.50;;;;;;;2.85;61.77;98342.44;12773164;23;20029;-77
2022/03/04 20:11:33;;;;;;;16.98;10.63;;;;;;;2.81;62.60;98339.25;12771563;23;20021;-77
2022/03/04 20:17:28;;;;;;;16.20;9.30;;;;;;;2.80;61.80;98332.25;12786725;23;20096;-77
2022/03/04 20:23:17;;;;;;;14.40;9.27;;;;;;;2.71;61.61;98329.91;12758436;23;20025;-77
2022/03/04 20:29:15;;;;;;;15.93;10.45;;;;;;;2.69;62.18;98332.44;12772351;23;20025;-77
2022/03/04 20:35:05;;;;;;;17.55;11.48;;;;;;;2.62;62.54;98333.06;12767155;23;20025;-77
2022/03/04 20:41:07;;;;;;;19.90;11.57;;;;;;;2.65;61.93;98340.28;12780384;23;20020;-77
2022/03/04 20:47:36;;;;;;;18.52;12.20;;;;;;;2.65;62.44;98332.75;12769881;23;20029;-77
2022/03/04 20:53:35;;;;;;;18.02;11.50;;;;;;;2.66;62.06;98337.00;12778812;23;20043;-77
2022/03/04 21:00:04;;;;;;;19.65;12.18;;;;;;;2.64;62.28;98344.31;12782279;23;20051;-77
2022/03/04 21:06:27;;;;;;;19.63;11.35;;;;;;;2.58;62.16;98338.88;12788480;23;20025;-77
2022/03/04 21:22:02;;;;;;;16.42;10.52;;;;;;;2.66;62.03;98358.28;12800824;23;20017;-77
2022/03/04 21:28:30;;;;;;;15.30;10.18;;;;;;;2.62;62.54;98363.38;12786063;23;20021;-77
2022/03/04 21:34:18;;;;;;;21.50;12.07;;;;;;;2.58;62.29;98347.88;12771702;22;20021;-77
2022/03/04 21:40:19;;;;;;;18.42;11.45;;;;;;;2.62;62.03;98349.59;12760929;23;20028;-77
2022/03/04 21:46:15;;;;;;;18.60;11.63;;;;;;;2.59;62.43;98338.34;12785869;23;20025;-77
2022/03/04 22:00:36;;;;;;;20.88;12.35;;;;;;;2.52;62.18;98346.50;12800507;23;20070;-77
2022/03/04 22:06:33;;;;;;;18.63;12.00;;;;;;;2.45;62.59;98342.34;12784132;23;20013;-77
2022/03/04 22:12:22;;;;;;;23.87;13.97;;;;;;;2.47;62.44;98341.81;12775321;23;20049;-77
2022/03/04 22:17:50;;;;;;;21.55;12.07;;;;;;;2.48;62.39;98341.28;12742978;23;20040;-77
2022/03/04 22:32:25;;;;;;;17.40;11.75;;;;;;;2.40;62.32;98340.41;12804195;23;20433;-77
2022/03/04 22:38:14;;;;;;;22.33;13.05;;;;;;;2.39;62.75;98327.16;12752106;23;20025;-77
2022/03/04 23:01:00;;;;;;;;;;;;;;;2.25;63.07;98302.34;12804453;23;20021;-77
2022/03/04 23:14:18;;;;;;;16.10;10.70;;;;;;;2.20;62.78;98294.88;12804886;23;20017;-77
2022/03/04 23:20:15;;;;;;;18.42;10.90;;;;;;;2.15;63.31;98297.75;12772309;23;20025;-77
2022/03/04 23:35:46;;;;;;;14.98;9.65;;;;;;;2.15;63.46;98314.28;12803544;23;20024;-77
2022/03/04 23:59:40;;;;;;;14.18;9.98;;;;;;;2.12;63.29;98315.28;12802951;23;20021;-77
